createdAt,value
2022-12-20T00:03:04.059Z,159.63
2022-12-20T00:06:17.221Z,160.65
2022-12-20T00:09:29.729Z,155.65
2022-12-20T00:12:41.937Z,155.38
2022-12-20T00:15:53.839Z,159.90
2022-12-20T00:19:10.361Z,163.35
2022-12-20T00:22:22.350Z,163.48
2022-12-20T00:25:34.285Z,153.90
2022-12-20T00:28:47.442Z,156.55
2022-12-20T00:31:59.913Z,157.45
2022-12-20T00:35:13.863Z,163.95
2022-12-20T00:38:26.096Z,161.38
2022-12-20T00:41:40.155Z,155.00
2022-12-20T00:44:52.082Z,163.98
2022-12-20T00:48:03.973Z,159.83
2022-12-20T00:51:19.603Z,162.68
2022-12-20T00:54:31.771Z,158.78
2022-12-20T00:57:43.576Z,168.13
2022-12-20T01:00:57.217Z,156.70
2022-12-20T01:04:10.063Z,158.03
2022-12-20T01:07:23.586Z,164.65
2022-12-20T01:10:35.893Z,158.98
2022-12-20T01:13:51.628Z,163.70
2022-12-20T01:17:03.755Z,167.60
2022-12-20T01:20:18.246Z,163.48
2022-12-20T01:23:30.243Z,159.08
2022-12-20T01:26:42.342Z,156.80
2022-12-20T01:29:54.859Z,167.55
2022-12-20T01:33:06.975Z,170.03
2022-12-20T01:36:24.953Z,167.58
2022-12-20T01:39:37.210Z,171.05
2022-12-20T01:42:49.115Z,163.28
2022-12-20T01:46:00.965Z,178.55
2022-12-20T01:49:18.295Z,178.15
2022-12-20T01:52:36.647Z,181.05
2022-12-20T01:55:50.243Z,172.53
2022-12-20T01:59:04.093Z,166.65
2022-12-20T02:02:18.789Z,165.58
2022-12-20T02:05:31.145Z,176.05
2022-12-20T02:08:43.356Z,169.20
2022-12-20T02:12:10.719Z,176.88
2022-12-20T02:15:45.608Z,171.35
2022-12-20T02:19:03.911Z,164.45
2022-12-20T02:22:26.899Z,165.65
2022-12-20T02:25:57.304Z,170.65
2022-12-20T02:29:26.503Z,167.68
2022-12-20T02:32:45.414Z,155.53
2022-12-20T02:39:07.538Z,162.80
2022-12-20T02:42:23.731Z,163.78
2022-12-20T02:45:39.160Z,125.00
2022-12-20T02:48:53.257Z,155.03
2022-12-20T02:52:07.715Z,155.00
2022-12-20T02:55:20.231Z,156.15
2022-12-20T02:58:38.359Z,154.95
2022-12-20T03:01:54.730Z,160.93
2022-12-20T03:05:08.223Z,169.18
2022-12-20T03:08:21.768Z,166.40
2022-12-20T03:11:34.267Z,157.45
2022-12-20T03:14:47.301Z,161.93
2022-12-20T03:17:59.715Z,154.65
2022-12-20T03:21:12.078Z,167.93
2022-12-20T03:24:24.165Z,156.95
2022-12-20T03:27:38.172Z,178.78
2022-12-20T03:30:50.785Z,174.05
2022-12-20T03:34:03.248Z,169.73
2022-12-20T03:37:15.328Z,160.35
2022-12-20T03:40:27.909Z,161.70
2022-12-20T03:43:40.441Z,160.58
2022-12-20T03:46:52.605Z,171.68
2022-12-20T03:50:06.151Z,173.70
2022-12-20T03:53:19.858Z,172.13
2022-12-20T03:56:32.222Z,174.83
2022-12-20T03:59:44.535Z,166.73
2022-12-20T04:02:58.293Z,170.55
2022-12-20T04:06:11.815Z,161.73
2022-12-20T04:09:24.051Z,159.15
2022-12-20T04:12:37.905Z,172.48
2022-12-20T04:15:54.174Z,161.58
2022-12-20T04:19:05.871Z,158.60
2022-12-20T04:22:22.648Z,168.58
2022-12-20T04:25:36.538Z,166.70
2022-12-20T04:28:48.630Z,160.43
2022-12-20T04:32:00.631Z,161.20
2022-12-20T04:35:15.419Z,154.63
2022-12-20T04:38:28.423Z,164.10
2022-12-20T04:41:41.705Z,154.30
2022-12-20T04:44:55.608Z,161.40
2022-12-20T04:48:37.533Z,160.83
2022-12-20T04:51:24.539Z,156.18
2022-12-20T04:54:36.848Z,160.98
2022-12-20T04:57:50.985Z,160.83
2022-12-20T05:01:03.323Z,160.90
2022-12-20T05:04:17.274Z,154.73
2022-12-20T05:07:29.366Z,151.75
2022-12-20T05:10:41.662Z,138.23
2022-12-20T05:13:53.538Z,141.15
2022-12-20T05:17:06.213Z,154.33
2022-12-20T05:20:20.421Z,138.00
2022-12-20T05:23:47.217Z,126.78
2022-12-20T05:26:59.801Z,115.50
2022-12-20T05:30:16.172Z,114.18
2022-12-20T05:33:33.857Z,122.23
2022-12-20T05:36:42.857Z,127.88
2022-12-20T05:39:54.885Z,122.58
2022-12-20T05:43:08.104Z,130.53
2022-12-20T05:46:22.134Z,127.95
2022-12-20T05:49:39.012Z,129.68
2022-12-20T05:52:52.799Z,149.55
2022-12-20T05:56:05.698Z,142.00
2022-12-20T05:59:19.122Z,132.70
2022-12-20T06:02:31.934Z,138.45
2022-12-20T06:05:47.908Z,139.88
2022-12-20T06:09:01.784Z,147.65
2022-12-20T06:12:18.445Z,143.75
2022-12-20T06:15:31.570Z,142.58
2022-12-20T06:18:45.509Z,146.38
2022-12-20T06:22:00.683Z,146.15
2022-12-20T06:25:16.487Z,139.20
2022-12-20T06:28:28.817Z,135.73
2022-12-20T06:31:41.358Z,140.30
2022-12-20T06:34:54.934Z,132.15
2022-12-20T06:38:06.848Z,131.68
2022-12-20T06:41:20.708Z,118.10
2022-12-20T06:44:32.870Z,114.88
2022-12-20T06:47:44.959Z,112.85
2022-12-20T06:50:57.571Z,93.95
2022-12-20T06:54:11.468Z,89.98
2022-12-20T06:57:23.654Z,94.63
2022-12-20T07:00:36.854Z,101.35
2022-12-20T07:03:49.015Z,98.68
2022-12-20T07:07:01.348Z,95.33
2022-12-20T07:10:15.787Z,101.33
2022-12-20T07:13:27.864Z,99.23
2022-12-20T07:16:41.757Z,97.08
2022-12-20T07:19:53.930Z,98.48
2022-12-20T07:23:05.798Z,98.38
2022-12-20T07:26:18.267Z,121.63
2022-12-20T07:29:30.265Z,137.85
2022-12-20T07:32:42.235Z,155.83
2022-12-20T07:35:54.887Z,159.25
2022-12-20T07:39:07.470Z,156.15
2022-12-20T07:42:19.594Z,163.55
2022-12-20T07:45:34.197Z,165.23
2022-12-20T07:48:46.221Z,176.30
2022-12-20T07:52:02.806Z,168.75
2022-12-20T07:55:17.337Z,171.35
2022-12-20T07:58:29.895Z,171.43
2022-12-20T08:01:42.269Z,172.05
2022-12-20T08:04:55.322Z,161.30
2022-12-20T08:08:08.032Z,148.95
2022-12-20T08:11:21.025Z,172.05
2022-12-20T08:14:33.152Z,153.93
2022-12-20T08:17:45.227Z,114.78
2022-12-20T08:20:57.685Z,114.63
2022-12-20T08:24:10.100Z,104.25
2022-12-20T08:27:22.201Z,111.80
2022-12-20T08:30:34.105Z,116.48
2022-12-20T08:33:46.862Z,118.70
2022-12-20T08:37:00.032Z,113.88
2022-12-20T08:40:15.596Z,121.03
2022-12-20T08:43:27.483Z,110.58
2022-12-20T08:46:40.666Z,106.70
2022-12-20T08:49:52.864Z,107.10
2022-12-20T08:53:04.806Z,104.20
2022-12-20T08:56:20.013Z,105.83
2022-12-20T08:59:31.919Z,102.58
2022-12-20T09:02:43.999Z,102.48
2022-12-20T09:05:57.031Z,93.70
2022-12-20T09:09:09.369Z,107.30
2022-12-20T09:12:21.244Z,93.80
2022-12-20T09:15:34.518Z,94.35
2022-12-20T09:18:46.765Z,93.78
2022-12-20T09:21:59.651Z,95.60
2022-12-20T09:25:14.204Z,101.15
2022-12-20T09:28:26.498Z,96.18
2022-12-20T09:31:38.899Z,99.38
2022-12-20T09:34:51.089Z,96.00
2022-12-20T09:38:03.808Z,92.28
2022-12-20T09:41:29.863Z,89.58
2022-12-20T09:44:46.068Z,94.83
2022-12-20T09:47:58.536Z,90.80
2022-12-20T09:51:19.354Z,86.23
2022-12-20T09:54:38.567Z,88.83
2022-12-20T09:58:01.511Z,85.80
2022-12-20T10:01:25.655Z,92.10
2022-12-20T10:04:39.350Z,95.55
2022-12-20T10:07:59.801Z,96.45
2022-12-20T10:11:18.582Z,99.75
2022-12-20T10:14:53.207Z,84.73
2022-12-20T10:18:26.033Z,88.97
2022-12-20T10:21:45.211Z,95.35
2022-12-20T10:25:04.008Z,91.70
2022-12-20T10:28:22.139Z,91.98
2022-12-20T10:31:35.048Z,91.65
2022-12-20T10:34:52.282Z,95.40
2022-12-20T10:38:13.989Z,95.88
2022-12-20T10:41:30.689Z,87.75
2022-12-20T10:44:43.875Z,92.70
2022-12-20T10:48:00.027Z,90.55
2022-12-20T10:51:21.919Z,86.53
2022-12-20T10:54:41.770Z,87.23
2022-12-20T10:57:54.075Z,84.65
2022-12-20T11:01:18.509Z,87.00
2022-12-20T11:04:35.543Z,72.50
2022-12-20T11:11:25.025Z,78.88
2022-12-20T11:14:40.145Z,79.35
2022-12-20T11:17:57.243Z,76.10
2022-12-20T11:21:24.283Z,79.55
2022-12-20T11:24:39.912Z,76.70
2022-12-20T11:27:59.426Z,76.40
2022-12-20T11:31:20.179Z,74.63
2022-12-20T11:34:41.508Z,73.50
2022-12-20T11:38:08.918Z,67.48
2022-12-20T11:41:29.020Z,73.33
2022-12-20T11:45:03.360Z,72.85
2022-12-20T11:48:52.044Z,74.85
2022-12-20T11:52:12.760Z,76.25
2022-12-20T11:55:29.916Z,77.00
2022-12-20T12:02:05.811Z,73.38
2022-12-20T12:05:28.489Z,79.25
2022-12-20T12:08:50.261Z,89.53
2022-12-20T12:12:09.064Z,76.38
2022-12-20T12:15:31.872Z,89.95
2022-12-20T12:18:46.324Z,85.40
2022-12-20T12:22:04.519Z,88.08
2022-12-20T12:25:22.172Z,85.80
2022-12-20T12:28:34.306Z,84.20
2022-12-20T12:31:52.697Z,84.67
2022-12-20T12:35:26.390Z,97.50
2022-12-20T12:39:18.155Z,97.85
2022-12-20T12:43:09.929Z,88.55
2022-12-20T12:46:27.005Z,80.70
2022-12-20T12:49:40.140Z,80.88
2022-12-20T12:52:57.304Z,78.13
2022-12-20T12:56:45.683Z,77.75
2022-12-20T12:59:56.079Z,74.85
2022-12-20T13:03:14.559Z,79.35
2022-12-20T13:07:05.239Z,70.63
2022-12-20T13:11:04.539Z,72.73
2022-12-20T13:14:56.599Z,71.25
2022-12-20T13:18:24.893Z,80.40
2022-12-20T13:21:53.619Z,77.63
2022-12-20T13:25:07.176Z,72.45
2022-12-20T13:28:52.556Z,75.30
2022-12-20T13:32:05.017Z,70.88
2022-12-20T13:35:40.430Z,74.98
2022-12-20T13:39:08.135Z,79.85
2022-12-20T13:42:42.066Z,73.25
2022-12-20T13:45:58.021Z,74.85
2022-12-20T13:49:14.394Z,75.33
2022-12-20T13:52:33.794Z,73.67
2022-12-20T13:55:46.944Z,79.15
2022-12-20T13:58:59.601Z,89.10
2022-12-20T14:02:22.268Z,81.80
2022-12-20T14:05:41.284Z,78.23
2022-12-20T14:08:56.228Z,77.70
2022-12-20T14:12:21.336Z,77.13
2022-12-20T14:15:34.741Z,83.10
2022-12-20T14:18:47.016Z,78.43
2022-12-20T14:21:59.795Z,81.60
2022-12-20T14:25:18.059Z,79.63
2022-12-20T14:28:39.980Z,90.25
2022-12-20T14:31:53.783Z,113.60
2022-12-20T14:35:06.532Z,89.43
2022-12-20T14:38:32.229Z,87.13
2022-12-20T14:41:48.355Z,87.08
2022-12-20T14:45:13.512Z,78.07
2022-12-20T14:48:25.933Z,81.30
2022-12-20T14:51:38.185Z,82.30
2022-12-20T14:55:12.734Z,95.30
2022-12-20T14:58:27.743Z,110.25
2022-12-20T15:01:43.968Z,107.88
2022-12-20T15:04:54.192Z,118.43
2022-12-20T15:08:18.455Z,94.55
2022-12-20T15:11:30.967Z,110.83
2022-12-20T15:14:44.663Z,95.22
2022-12-20T15:17:56.904Z,94.63
2022-12-20T15:21:18.287Z,102.55
2022-12-20T15:24:33.646Z,90.70
2022-12-20T15:27:46.251Z,89.30
2022-12-20T15:31:01.000Z,90.60
2022-12-20T15:34:20.244Z,87.33
2022-12-20T15:37:32.664Z,88.80
2022-12-20T15:40:45.488Z,83.00
2022-12-20T15:44:01.388Z,86.35
2022-12-20T15:47:18.648Z,87.75
2022-12-20T15:50:30.907Z,89.40
2022-12-20T15:53:43.368Z,96.03
2022-12-20T15:56:56.052Z,171.00
2022-12-20T16:00:10.411Z,89.15
2022-12-20T16:03:30.703Z,88.50
2022-12-20T16:06:43.698Z,112.08
2022-12-20T16:09:56.070Z,94.60
2022-12-20T16:13:08.686Z,107.78
2022-12-20T16:16:25.900Z,95.18
2022-12-20T16:19:38.737Z,127.13
2022-12-20T16:22:51.712Z,102.65
2022-12-20T16:26:04.143Z,88.63
2022-12-20T16:29:16.911Z,92.58
2022-12-20T16:32:29.502Z,83.73
2022-12-20T16:35:42.986Z,82.65
2022-12-20T16:38:56.935Z,85.53
2022-12-20T16:42:10.590Z,85.98
2022-12-20T16:45:26.941Z,83.03
2022-12-20T16:48:39.328Z,90.60
2022-12-20T16:51:53.780Z,83.00
2022-12-20T16:55:06.897Z,78.30
2022-12-20T16:58:19.695Z,79.15
2022-12-20T17:01:39.463Z,74.30
2022-12-20T17:04:52.015Z,86.23
2022-12-20T17:11:38.441Z,81.28
2022-12-20T17:14:51.837Z,78.50
2022-12-20T17:18:04.256Z,76.90
2022-12-20T17:21:32.436Z,112.60
2022-12-20T17:24:44.608Z,83.70
2022-12-20T17:27:57.452Z,82.80
2022-12-20T17:31:15.633Z,78.40
2022-12-20T17:34:33.127Z,76.03
2022-12-20T17:37:46.258Z,77.13
2022-12-20T17:40:59.608Z,79.73
2022-12-20T17:44:16.508Z,82.17
2022-12-20T17:47:29.406Z,72.98
2022-12-20T17:50:43.649Z,81.85
2022-12-20T17:54:01.715Z,83.45
2022-12-20T17:57:19.144Z,78.58
2022-12-20T18:00:39.357Z,76.18
2022-12-20T18:04:06.161Z,75.65
2022-12-20T18:07:05.180Z,82.33
2022-12-20T18:10:18.667Z,77.30
2022-12-20T18:13:31.273Z,77.78
2022-12-20T18:16:44.624Z,74.20
2022-12-20T18:19:57.133Z,71.43
2022-12-20T18:23:09.869Z,71.30
2022-12-20T18:26:25.707Z,96.00
2022-12-20T18:29:38.762Z,80.33
2022-12-20T18:32:51.179Z,73.38
2022-12-20T18:36:12.818Z,71.90
2022-12-20T18:39:25.185Z,69.98
2022-12-20T18:42:37.735Z,69.00
2022-12-20T18:45:50.580Z,79.13
2022-12-20T18:49:04.751Z,78.45
2022-12-20T18:52:17.176Z,78.18
2022-12-20T18:55:29.591Z,73.55
2022-12-20T18:58:42.661Z,74.75
2022-12-20T19:01:56.894Z,76.35
2022-12-20T19:05:11.321Z,75.05
2022-12-20T19:08:23.937Z,80.45
2022-12-20T19:11:37.279Z,80.90
2022-12-20T19:14:50.518Z,72.45
2022-12-20T19:18:03.960Z,80.20
2022-12-20T19:21:18.865Z,89.25
2022-12-20T19:24:30.925Z,77.50
2022-12-20T19:27:43.520Z,84.38
2022-12-20T19:30:55.826Z,78.80
2022-12-20T19:34:11.539Z,80.40
2022-12-20T19:37:24.051Z,75.85
2022-12-20T19:40:37.046Z,78.23
2022-12-20T19:43:51.704Z,82.98
2022-12-20T19:47:04.435Z,84.18
2022-12-20T19:50:18.812Z,79.45
2022-12-20T19:53:31.022Z,78.38
2022-12-20T19:56:44.457Z,73.53
2022-12-20T19:59:56.858Z,80.00
2022-12-20T20:03:09.344Z,78.80
2022-12-20T20:06:22.201Z,81.93
2022-12-20T20:09:34.494Z,79.20
2022-12-20T20:12:47.026Z,71.85
2022-12-20T20:16:01.445Z,76.30
2022-12-20T20:19:13.967Z,73.85
2022-12-20T20:22:26.259Z,78.68
2022-12-20T20:25:38.800Z,79.48
2022-12-20T20:28:51.830Z,80.30
2022-12-20T20:32:04.303Z,86.55
2022-12-20T20:35:18.447Z,83.65
2022-12-20T20:38:31.858Z,87.83
2022-12-20T20:41:44.241Z,92.20
2022-12-20T20:44:56.839Z,101.03
2022-12-20T20:48:09.795Z,104.25
2022-12-20T20:51:22.608Z,100.50
2022-12-20T20:54:35.077Z,101.38
2022-12-20T20:57:47.624Z,114.20
2022-12-20T21:01:02.843Z,114.48
2022-12-20T21:04:15.139Z,111.10
2022-12-20T21:07:27.546Z,107.93
2022-12-20T21:10:40.330Z,103.08
2022-12-20T21:13:52.814Z,120.90
2022-12-20T21:17:05.884Z,126.73
2022-12-20T21:20:25.728Z,127.88
2022-12-20T21:23:34.491Z,113.55
2022-12-20T21:26:47.394Z,120.05
2022-12-20T21:29:59.554Z,119.83
2022-12-20T21:33:13.688Z,120.85
2022-12-20T21:36:26.904Z,131.20
2022-12-20T21:39:39.813Z,115.70
2022-12-20T21:42:52.231Z,125.18
2022-12-20T21:46:04.712Z,114.68
2022-12-20T21:49:17.370Z,118.45
2022-12-20T21:52:29.482Z,122.15
2022-12-20T21:55:41.624Z,122.08
2022-12-20T21:58:55.692Z,121.95
2022-12-20T22:02:09.909Z,115.25
2022-12-20T22:05:22.586Z,112.68
2022-12-20T22:08:37.398Z,116.70
2022-12-20T22:11:50.606Z,120.43
2022-12-20T22:15:04.238Z,111.45
2022-12-20T22:18:16.552Z,106.38
2022-12-20T22:21:31.586Z,115.23
2022-12-20T22:24:45.156Z,117.58
2022-12-20T22:27:57.581Z,112.65
2022-12-20T22:31:14.817Z,113.23
2022-12-20T22:37:37.714Z,107.20
2022-12-20T22:40:51.994Z,105.38
2022-12-20T22:44:05.769Z,106.18
2022-12-20T22:47:17.979Z,110.70
2022-12-20T22:50:30.199Z,102.45
2022-12-20T22:53:43.168Z,106.88
2022-12-20T22:56:55.323Z,103.58
2022-12-20T23:00:10.599Z,107.18
2022-12-20T23:03:22.823Z,109.68
2022-12-20T23:06:35.136Z,112.20
2022-12-20T23:09:47.338Z,109.30
2022-12-20T23:13:14.293Z,103.50
2022-12-20T23:16:27.017Z,103.03
2022-12-20T23:19:50.234Z,107.33
2022-12-20T23:23:02.482Z,108.80
2022-12-20T23:26:21.076Z,96.50
2022-12-20T23:29:34.060Z,96.05
2022-12-20T23:32:47.568Z,94.28
2022-12-20T23:36:06.665Z,100.83
2022-12-20T23:39:18.957Z,98.73
2022-12-20T23:42:31.392Z,99.43
2022-12-20T23:45:43.625Z,90.63
2022-12-20T23:48:57.785Z,97.55
2022-12-20T23:52:10.239Z,98.08
2022-12-20T23:55:22.644Z,101.03
2022-12-20T23:58:35.098Z,96.18
